sensor_id;sensor_type;location;lat;lon;timestamp;pressure;altitude;pressure_sealevel;temperature;humidity
20971;BME280;10644;48.834;10.088;2023-05-20T00:00:25;96767.22;;;18.26;54.30
20971;BME280;10644;48.834;10.088;2023-05-20T00:02:54;96771.69;;;18.35;53.96
20971;BME280;10644;48.834;10.088;2023-05-20T00:05:24;96781.91;;;18.16;54.28
20971;BME280;10644;48.834;10.088;2023-05-20T00:07:49;96771.72;;;18.24;54.16
20971;BME280;10644;48.834;10.088;2023-05-20T00:10:14;96768.75;;;18.29;53.86
20971;BME280;10644;48.834;10.088;2023-05-20T00:12:43;96769.78;;;18.37;53.77
20971;BME280;10644;48.834;10.088;2023-05-20T00:15:14;96769.81;;;18.26;54.37
20971;BME280;10644;48.834;10.088;2023-05-20T00:17:39;96764.41;;;18.09;54.44
20971;BME280;10644;48.834;10.088;2023-05-20T00:20:05;96764.00;;;17.93;54.95
20971;BME280;10644;48.834;10.088;2023-05-20T00:22:30;96776.16;;;17.61;56.42
20971;BME280;10644;48.834;10.088;2023-05-20T00:24:56;96764.41;;;17.46;56.41
20971;BME280;10644;48.834;10.088;2023-05-20T00:27:21;96765.28;;;17.67;56.14
20971;BME280;10644;48.834;10.088;2023-05-20T00:29:47;96758.00;;;17.92;55.08
20971;BME280;10644;48.834;10.088;2023-05-20T00:32:12;96760.41;;;18.05;54.67
20971;BME280;10644;48.834;10.088;2023-05-20T00:34:38;96757.75;;;18.16;54.55
20971;BME280;10644;48.834;10.088;2023-05-20T00:37:03;96756.81;;;18.17;54.78
20971;BME280;10644;48.834;10.088;2023-05-20T00:39:29;96750.97;;;18.24;54.53
20971;BME280;10644;48.834;10.088;2023-05-20T00:41:56;96750.94;;;18.35;54.37
20971;BME280;10644;48.834;10.088;2023-05-20T00:44:25;96736.94;;;18.27;54.56
20971;BME280;10644;48.834;10.088;2023-05-20T00:46:54;96754.09;;;18.39;54.25
20971;BME280;10644;48.834;10.088;2023-05-20T00:49:20;96741.97;;;18.39;54.57
20971;BME280;10644;48.834;10.088;2023-05-20T00:51:47;96743.19;;;18.45;54.12
20971;BME280;10644;48.834;10.088;2023-05-20T00:54:13;96750.47;;;18.51;54.13
20971;BME280;10644;48.834;10.088;2023-05-20T00:56:39;96737.94;;;18.56;53.88
20971;BME280;10644;48.834;10.088;2023-05-20T00:59:05;96733.25;;;18.50;54.15
20971;BME280;10644;48.834;10.088;2023-05-20T01:01:30;96740.44;;;18.37;54.72
20971;BME280;10644;48.834;10.088;2023-05-20T01:03:55;96742.19;;;18.36;54.41
20971;BME280;10644;48.834;10.088;2023-05-20T01:06:21;96746.44;;;18.37;54.63
20971;BME280;10644;48.834;10.088;2023-05-20T01:08:48;96741.84;;;18.30;54.61
20971;BME280;10644;48.834;10.088;2023-05-20T01:11:25;96736.88;;;18.17;55.27
20971;BME280;10644;48.834;10.088;2023-05-20T01:14:05;96736.56;;;18.11;54.94
20971;BME280;10644;48.834;10.088;2023-05-20T01:16:33;96735.16;;;18.07;55.58
20971;BME280;10644;48.834;10.088;2023-05-20T01:19:01;96723.91;;;17.97;55.48
20971;BME280;10644;48.834;10.088;2023-05-20T01:21:29;96716.84;;;17.99;55.60
20971;BME280;10644;48.834;10.088;2023-05-20T01:23:54;96717.78;;;17.98;55.43
20971;BME280;10644;48.834;10.088;2023-05-20T01:26:20;96726.81;;;17.83;55.80
20971;BME280;10644;48.834;10.088;2023-05-20T01:28:48;96722.91;;;17.88;55.81
20971;BME280;10644;48.834;10.088;2023-05-20T01:31:23;96719.81;;;17.94;55.37
20971;BME280;10644;48.834;10.088;2023-05-20T01:33:52;96716.44;;;18.03;55.43
20971;BME280;10644;48.834;10.088;2023-05-20T01:36:20;96712.78;;;18.06;55.43
20971;BME280;10644;48.834;10.088;2023-05-20T01:38:58;96716.56;;;18.02;55.38
20971;BME280;10644;48.834;10.088;2023-05-20T01:41:25;96710.19;;;18.06;55.54
20971;BME280;10644;48.834;10.088;2023-05-20T01:43:51;96702.59;;;18.14;54.98
20971;BME280;10644;48.834;10.088;2023-05-20T01:46:16;96709.88;;;18.20;54.66
20971;BME280;10644;48.834;10.088;2023-05-20T01:48:42;96706.34;;;18.21;54.86
20971;BME280;10644;48.834;10.088;2023-05-20T01:51:07;96710.03;;;18.28;55.07
20971;BME280;10644;48.834;10.088;2023-05-20T01:53:32;96707.81;;;18.34;54.48
20971;BME280;10644;48.834;10.088;2023-05-20T01:55:58;96703.84;;;18.19;54.79
20971;BME280;10644;48.834;10.088;2023-05-20T01:58:23;96703.03;;;18.19;54.98
20971;BME280;10644;48.834;10.088;2023-05-20T02:00:51;96705.09;;;18.25;55.13
20971;BME280;10644;48.834;10.088;2023-05-20T02:03:18;96706.34;;;18.21;55.23
20971;BME280;10644;48.834;10.088;2023-05-20T02:05:44;96708.66;;;18.24;54.87
20971;BME280;10644;48.834;10.088;2023-05-20T02:08:09;96713.41;;;18.19;55.08
20971;BME280;10644;48.834;10.088;2023-05-20T02:10:35;96709.13;;;18.08;55.04
20971;BME280;10644;48.834;10.088;2023-05-20T02:13:00;96708.69;;;18.03;55.59
20971;BME280;10644;48.834;10.088;2023-05-20T02:15:25;96717.91;;;17.96;55.62
20971;BME280;10644;48.834;10.088;2023-05-20T02:17:51;96707.22;;;17.90;55.79
20971;BME280;10644;48.834;10.088;2023-05-20T02:20:16;96717.09;;;17.96;55.72
20971;BME280;10644;48.834;10.088;2023-05-20T02:22:42;96706.88;;;17.94;55.73
20971;BME280;10644;48.834;10.088;2023-05-20T02:25:07;96716.69;;;17.80;56.14
20971;BME280;10644;48.834;10.088;2023-05-20T02:27:33;96709.88;;;17.79;56.04
20971;BME280;10644;48.834;10.088;2023-05-20T02:29:59;96718.09;;;17.84;56.25
20971;BME280;10644;48.834;10.088;2023-05-20T02:32:24;96715.63;;;17.82;56.18
20971;BME280;10644;48.834;10.088;2023-05-20T02:34:53;96722.03;;;17.78;56.64
20971;BME280;10644;48.834;10.088;2023-05-20T02:37:19;96703.88;;;17.78;56.29
20971;BME280;10644;48.834;10.088;2023-05-20T02:39:45;96709.63;;;17.82;56.24
20971;BME280;10644;48.834;10.088;2023-05-20T02:42:11;96706.31;;;17.80;56.48
20971;BME280;10644;48.834;10.088;2023-05-20T02:44:36;96707.16;;;17.80;56.68
20971;BME280;10644;48.834;10.088;2023-05-20T02:47:01;96704.09;;;17.55;56.71
20971;BME280;10644;48.834;10.088;2023-05-20T02:49:27;96711.19;;;17.53;57.09
20971;BME280;10644;48.834;10.088;2023-05-20T02:51:54;96702.94;;;17.59;56.96
20971;BME280;10644;48.834;10.088;2023-05-20T02:54:20;96702.69;;;17.51;56.86
20971;BME280;10644;48.834;10.088;2023-05-20T02:56:46;96705.56;;;17.48;57.35
20971;BME280;10644;48.834;10.088;2023-05-20T02:59:11;96713.03;;;17.62;57.05
20971;BME280;10644;48.834;10.088;2023-05-20T03:01:37;96711.16;;;17.64;56.83
20971;BME280;10644;48.834;10.088;2023-05-20T03:04:04;96706.47;;;17.58;57.03
20971;BME280;10644;48.834;10.088;2023-05-20T03:06:29;96706.38;;;17.37;57.43
20971;BME280;10644;48.834;10.088;2023-05-20T03:08:56;96708.38;;;17.34;57.70
20971;BME280;10644;48.834;10.088;2023-05-20T03:11:22;96703.97;;;17.25;57.56
20971;BME280;10644;48.834;10.088;2023-05-20T03:13:47;96704.69;;;17.16;58.36
20971;BME280;10644;48.834;10.088;2023-05-20T03:16:12;96702.56;;;17.21;57.79
20971;BME280;10644;48.834;10.088;2023-05-20T03:18:38;96707.59;;;17.33;57.97
20971;BME280;10644;48.834;10.088;2023-05-20T03:21:03;96705.22;;;17.41;57.77
20971;BME280;10644;48.834;10.088;2023-05-20T03:23:29;96702.53;;;17.32;58.01
20971;BME280;10644;48.834;10.088;2023-05-20T03:25:56;96706.09;;;17.20;58.22
20971;BME280;10644;48.834;10.088;2023-05-20T03:28:22;96697.91;;;17.04;58.83
20971;BME280;10644;48.834;10.088;2023-05-20T03:30:47;96701.63;;;17.11;58.33
20971;BME280;10644;48.834;10.088;2023-05-20T03:33:12;96709.88;;;17.16;58.42
20971;BME280;10644;48.834;10.088;2023-05-20T03:35:39;96692.19;;;17.21;58.50
20971;BME280;10644;48.834;10.088;2023-05-20T03:38:06;96701.38;;;17.25;58.28
20971;BME280;10644;48.834;10.088;2023-05-20T03:40:32;96708.53;;;17.32;58.23
20971;BME280;10644;48.834;10.088;2023-05-20T03:42:57;96712.41;;;17.38;57.79
20971;BME280;10644;48.834;10.088;2023-05-20T03:45:22;96698.59;;;17.37;58.12
20971;BME280;10644;48.834;10.088;2023-05-20T03:47:50;96697.72;;;17.27;58.26
20971;BME280;10644;48.834;10.088;2023-05-20T03:50:20;96695.47;;;17.23;58.01
20971;BME280;10644;48.834;10.088;2023-05-20T03:52:48;96693.13;;;17.31;58.35
20971;BME280;10644;48.834;10.088;2023-05-20T03:55:13;96699.47;;;17.38;58.15
20971;BME280;10644;48.834;10.088;2023-05-20T03:57:39;96696.66;;;17.41;57.93
20971;BME280;10644;48.834;10.088;2023-05-20T04:00:05;96709.91;;;17.47;57.59
20971;BME280;10644;48.834;10.088;2023-05-20T04:02:38;96698.41;;;17.40;57.84
20971;BME280;10644;48.834;10.088;2023-05-20T04:05:04;96702.91;;;17.38;57.81
20971;BME280;10644;48.834;10.088;2023-05-20T04:07:30;96701.56;;;17.33;58.06
20971;BME280;10644;48.834;10.088;2023-05-20T04:09:58;96697.69;;;16.96;58.97
20971;BME280;10644;48.834;10.088;2023-05-20T04:12:24;96707.78;;;16.99;59.12
20971;BME280;10644;48.834;10.088;2023-05-20T04:14:56;96706.34;;;17.06;59.14
20971;BME280;10644;48.834;10.088;2023-05-20T04:17:22;96701.53;;;17.12;58.73
20971;BME280;10644;48.834;10.088;2023-05-20T04:19:47;96689.16;;;17.16;58.77
20971;BME280;10644;48.834;10.088;2023-05-20T04:22:13;96692.66;;;17.26;58.16
20971;BME280;10644;48.834;10.088;2023-05-20T04:24:38;96694.50;;;17.35;58.46
20971;BME280;10644;48.834;10.088;2023-05-20T04:27:03;96695.13;;;17.38;58.12
20971;BME280;10644;48.834;10.088;2023-05-20T04:29:30;96697.91;;;17.35;58.41
20971;BME280;10644;48.834;10.088;2023-05-20T04:31:58;96698.09;;;17.12;58.79
20971;BME280;10644;48.834;10.088;2023-05-20T04:34:28;96707.78;;;16.99;59.23
20971;BME280;10644;48.834;10.088;2023-05-20T04:36:54;96713.44;;;16.93;59.72
20971;BME280;10644;48.834;10.088;2023-05-20T04:39:19;96707.13;;;16.86;59.59
20971;BME280;10644;48.834;10.088;2023-05-20T04:41:48;96707.44;;;16.92;59.48
20971;BME280;10644;48.834;10.088;2023-05-20T04:44:16;96719.09;;;16.87;60.40
20971;BME280;10644;48.834;10.088;2023-05-20T04:46:41;96705.03;;;16.69;60.57
20971;BME280;10644;48.834;10.088;2023-05-20T04:49:08;96705.13;;;16.78;60.38
20971;BME280;10644;48.834;10.088;2023-05-20T04:51:34;96690.47;;;16.57;60.88
20971;BME280;10644;48.834;10.088;2023-05-20T04:54:00;96700.53;;;16.71;60.57
20971;BME280;10644;48.834;10.088;2023-05-20T04:56:25;96696.78;;;16.75;60.69
20971;BME280;10644;48.834;10.088;2023-05-20T04:58:50;96710.88;;;16.82;60.38
20971;BME280;10644;48.834;10.088;2023-05-20T05:01:16;96701.38;;;16.71;60.64
20971;BME280;10644;48.834;10.088;2023-05-20T05:03:44;96707.16;;;16.53;61.51
20971;BME280;10644;48.834;10.088;2023-05-20T05:06:10;96704.97;;;16.14;62.85
20971;BME280;10644;48.834;10.088;2023-05-20T05:08:35;96709.53;;;15.99;63.59
20971;BME280;10644;48.834;10.088;2023-05-20T05:11:00;96700.38;;;16.06;63.17
20971;BME280;10644;48.834;10.088;2023-05-20T05:13:26;96703.34;;;16.24;62.92
20971;BME280;10644;48.834;10.088;2023-05-20T05:16:01;96686.19;;;16.23;62.68
20971;BME280;10644;48.834;10.088;2023-05-20T05:18:27;96703.22;;;16.36;62.57
20971;BME280;10644;48.834;10.088;2023-05-20T05:20:58;96696.31;;;16.37;62.70
20971;BME280;10644;48.834;10.088;2023-05-20T05:23:26;96690.44;;;16.24;63.44
20971;BME280;10644;48.834;10.088;2023-05-20T05:25:51;96686.69;;;16.39;62.70
20971;BME280;10644;48.834;10.088;2023-05-20T05:28:17;96685.25;;;16.35;63.12
20971;BME280;10644;48.834;10.088;2023-05-20T05:30:42;96688.31;;;16.62;62.20
20971;BME280;10644;48.834;10.088;2023-05-20T05:33:08;96693.03;;;16.68;61.68
20971;BME280;10644;48.834;10.088;2023-05-20T05:35:33;96677.75;;;16.65;61.96
20971;BME280;10644;48.834;10.088;2023-05-20T05:37:58;96688.56;;;16.59;62.36
20971;BME280;10644;48.834;10.088;2023-05-20T05:40:24;96684.56;;;16.55;62.26
20971;BME280;10644;48.834;10.088;2023-05-20T05:42:51;96679.06;;;16.59;62.34
20971;BME280;10644;48.834;10.088;2023-05-20T05:45:17;96676.91;;;16.64;62.15
20971;BME280;10644;48.834;10.088;2023-05-20T05:47:42;96665.25;;;16.81;61.75
20971;BME280;10644;48.834;10.088;2023-05-20T05:50:10;96668.56;;;16.50;62.52
20971;BME280;10644;48.834;10.088;2023-05-20T05:52:35;96687.50;;;16.61;62.52
20971;BME280;10644;48.834;10.088;2023-05-20T05:55:01;96677.06;;;16.52;62.59
20971;BME280;10644;48.834;10.088;2023-05-20T05:57:26;96671.16;;;16.61;62.07
20971;BME280;10644;48.834;10.088;2023-05-20T05:59:52;96676.31;;;16.61;62.71
20971;BME280;10644;48.834;10.088;2023-05-20T06:02:17;96679.84;;;16.82;61.71
20971;BME280;10644;48.834;10.088;2023-05-20T06:04:42;96666.53;;;16.75;62.21
20971;BME280;10644;48.834;10.088;2023-05-20T06:07:11;96667.34;;;16.87;62.02
20971;BME280;10644;48.834;10.088;2023-05-20T06:09:37;96666.19;;;16.80;62.46
20971;BME280;10644;48.834;10.088;2023-05-20T06:12:02;96658.19;;;16.83;62.22
20971;BME280;10644;48.834;10.088;2023-05-20T06:14:28;96659.13;;;16.82;61.84
20971;BME280;10644;48.834;10.088;2023-05-20T06:16:53;96660.22;;;16.57;63.11
20971;BME280;10644;48.834;10.088;2023-05-20T06:19:18;96665.28;;;16.59;62.74
20971;BME280;10644;48.834;10.088;2023-05-20T06:21:44;96668.34;;;16.53;63.30
20971;BME280;10644;48.834;10.088;2023-05-20T06:24:09;96664.78;;;16.76;62.38
20971;BME280;10644;48.834;10.088;2023-05-20T06:26:34;96662.25;;;16.54;62.97
20971;BME280;10644;48.834;10.088;2023-05-20T06:29:00;96664.13;;;16.63;63.41
20971;BME280;10644;48.834;10.088;2023-05-20T06:31:28;96652.44;;;16.79;62.57
20971;BME280;10644;48.834;10.088;2023-05-20T06:33:54;96655.63;;;16.72;62.77
20971;BME280;10644;48.834;10.088;2023-05-20T06:36:20;96658.19;;;16.72;62.83
20971;BME280;10644;48.834;10.088;2023-05-20T06:38:45;96646.09;;;16.72;62.56
20971;BME280;10644;48.834;10.088;2023-05-20T06:41:11;96642.72;;;17.03;62.04
20971;BME280;10644;48.834;10.088;2023-05-20T06:43:36;96641.41;;;17.09;61.64
20971;BME280;10644;48.834;10.088;2023-05-20T06:46:02;96635.31;;;16.99;61.82
20971;BME280;10644;48.834;10.088;2023-05-20T06:48:27;96638.75;;;16.99;62.11
20971;BME280;10644;48.834;10.088;2023-05-20T06:50:52;96634.22;;;16.81;62.46
20971;BME280;10644;48.834;10.088;2023-05-20T06:53:18;96627.84;;;16.85;62.16
20971;BME280;10644;48.834;10.088;2023-05-20T06:55:43;96618.66;;;16.92;61.78
20971;BME280;10644;48.834;10.088;2023-05-20T06:58:08;96627.28;;;17.13;61.54
20971;BME280;10644;48.834;10.088;2023-05-20T07:00:34;96619.72;;;16.89;62.33
20971;BME280;10644;48.834;10.088;2023-05-20T07:02:59;96624.53;;;17.14;61.21
20971;BME280;10644;48.834;10.088;2023-05-20T07:05:24;96622.75;;;17.26;61.25
20971;BME280;10644;48.834;10.088;2023-05-20T07:07:51;96632.16;;;16.95;61.70
20971;BME280;10644;48.834;10.088;2023-05-20T07:10:17;96632.34;;;16.72;62.24
20971;BME280;10644;48.834;10.088;2023-05-20T07:12:42;96633.44;;;16.90;61.84
20971;BME280;10644;48.834;10.088;2023-05-20T07:15:08;96622.47;;;17.29;61.29
20971;BME280;10644;48.834;10.088;2023-05-20T07:17:33;96630.00;;;17.43;60.54
20971;BME280;10644;48.834;10.088;2023-05-20T07:20:02;96626.72;;;17.41;60.40
20971;BME280;10644;48.834;10.088;2023-05-20T07:22:37;96631.13;;;17.50;60.02
20971;BME280;10644;48.834;10.088;2023-05-20T07:25:03;96608.44;;;17.42;60.56
20971;BME280;10644;48.834;10.088;2023-05-20T07:27:29;96614.63;;;17.71;59.22
20971;BME280;10644;48.834;10.088;2023-05-20T07:29:54;96616.94;;;17.95;59.27
20971;BME280;10644;48.834;10.088;2023-05-20T07:32:19;96610.47;;;18.10;58.67
20971;BME280;10644;48.834;10.088;2023-05-20T07:34:45;96604.88;;;18.44;57.90
20971;BME280;10644;48.834;10.088;2023-05-20T07:37:10;96603.00;;;18.56;57.23
20971;BME280;10644;48.834;10.088;2023-05-20T07:39:37;96609.16;;;18.55;57.18
20971;BME280;10644;48.834;10.088;2023-05-20T07:42:02;96606.56;;;18.25;57.68
20971;BME280;10644;48.834;10.088;2023-05-20T07:44:28;96602.56;;;18.11;58.15
20971;BME280;10644;48.834;10.088;2023-05-20T07:46:54;96600.78;;;18.12;58.18
20971;BME280;10644;48.834;10.088;2023-05-20T07:49:21;96602.56;;;18.11;58.25
20971;BME280;10644;48.834;10.088;2023-05-20T07:51:47;96589.34;;;18.24;57.73
20971;BME280;10644;48.834;10.088;2023-05-20T07:54:12;96581.31;;;18.17;58.44
20971;BME280;10644;48.834;10.088;2023-05-20T07:56:39;96585.72;;;18.36;57.86
20971;BME280;10644;48.834;10.088;2023-05-20T07:59:06;96593.06;;;18.61;57.04
20971;BME280;10644;48.834;10.088;2023-05-20T08:01:32;96594.53;;;18.54;56.77
20971;BME280;10644;48.834;10.088;2023-05-20T08:03:58;96586.06;;;18.52;56.82
20971;BME280;10644;48.834;10.088;2023-05-20T08:06:24;96581.13;;;18.39;57.27
20971;BME280;10644;48.834;10.088;2023-05-20T08:08:49;96586.34;;;18.58;57.00
20971;BME280;10644;48.834;10.088;2023-05-20T08:11:15;96581.72;;;18.81;56.37
20971;BME280;10644;48.834;10.088;2023-05-20T08:13:40;96575.72;;;18.90;55.81
20971;BME280;10644;48.834;10.088;2023-05-20T08:16:05;96566.72;;;19.13;55.61
20971;BME280;10644;48.834;10.088;2023-05-20T08:18:33;96576.81;;;18.97;55.43
20971;BME280;10644;48.834;10.088;2023-05-20T08:20:59;96577.34;;;18.62;55.52
20971;BME280;10644;48.834;10.088;2023-05-20T08:23:24;96580.75;;;18.53;55.87
20971;BME280;10644;48.834;10.088;2023-05-20T08:25:50;96582.25;;;18.56;57.15
20971;BME280;10644;48.834;10.088;2023-05-20T08:28:17;96584.06;;;18.84;55.81
20971;BME280;10644;48.834;10.088;2023-05-20T08:30:42;96580.50;;;18.85;55.68
20971;BME280;10644;48.834;10.088;2023-05-20T08:33:08;96570.53;;;19.09;55.45
20971;BME280;10644;48.834;10.088;2023-05-20T08:35:33;96569.97;;;19.15;54.77
20971;BME280;10644;48.834;10.088;2023-05-20T08:38:04;96576.16;;;19.33;53.71
20971;BME280;10644;48.834;10.088;2023-05-20T08:40:30;96563.81;;;19.63;53.73
20971;BME280;10644;48.834;10.088;2023-05-20T08:42:55;96561.34;;;19.98;53.06
20971;BME280;10644;48.834;10.088;2023-05-20T08:45:24;96567.75;;;20.04;53.27
20971;BME280;10644;48.834;10.088;2023-05-20T08:47:52;96571.69;;;20.17;53.03
20971;BME280;10644;48.834;10.088;2023-05-20T08:50:18;96568.84;;;20.38;52.57
20971;BME280;10644;48.834;10.088;2023-05-20T08:52:46;96569.34;;;20.51;51.65
20971;BME280;10644;48.834;10.088;2023-05-20T08:55:14;96575.75;;;20.56;51.16
20971;BME280;10644;48.834;10.088;2023-05-20T08:57:42;96571.19;;;20.58;51.32
20971;BME280;10644;48.834;10.088;2023-05-20T09:00:12;96575.69;;;20.39;51.99
20971;BME280;10644;48.834;10.088;2023-05-20T09:02:41;96570.09;;;20.61;51.64
20971;BME280;10644;48.834;10.088;2023-05-20T09:05:09;96568.75;;;20.57;51.35
20971;BME280;10644;48.834;10.088;2023-05-20T09:07:36;96558.97;;;20.41;51.98
20971;BME280;10644;48.834;10.088;2023-05-20T09:10:03;96565.88;;;20.33;51.92
20971;BME280;10644;48.834;10.088;2023-05-20T09:12:29;96558.84;;;20.16;52.27
20971;BME280;10644;48.834;10.088;2023-05-20T09:14:54;96562.19;;;20.08;53.09
20971;BME280;10644;48.834;10.088;2023-05-20T09:17:22;96565.25;;;20.48;51.93
20971;BME280;10644;48.834;10.088;2023-05-20T09:19:49;96559.97;;;20.58;51.31
20971;BME280;10644;48.834;10.088;2023-05-20T09:22:24;96557.25;;;20.77;50.42
20971;BME280;10644;48.834;10.088;2023-05-20T09:24:50;96552.53;;;20.90;50.14
20971;BME280;10644;48.834;10.088;2023-05-20T09:27:21;96553.56;;;20.97;50.26
20971;BME280;10644;48.834;10.088;2023-05-20T09:29:48;96568.41;;;20.87;50.23
20971;BME280;10644;48.834;10.088;2023-05-20T09:32:14;96554.72;;;20.85;50.46
20971;BME280;10644;48.834;10.088;2023-05-20T09:34:41;96549.41;;;21.04;49.82
20971;BME280;10644;48.834;10.088;2023-05-20T09:37:07;96548.97;;;21.34;49.94
20971;BME280;10644;48.834;10.088;2023-05-20T09:39:42;96548.28;;;21.49;49.05
20971;BME280;10644;48.834;10.088;2023-05-20T09:42:17;96550.69;;;21.86;48.66
20971;BME280;10644;48.834;10.088;2023-05-20T09:44:45;96547.63;;;21.98;48.07
20971;BME280;10644;48.834;10.088;2023-05-20T09:47:13;96548.00;;;21.78;48.87
20971;BME280;10644;48.834;10.088;2023-05-20T09:49:40;96543.88;;;22.01;48.22
20971;BME280;10644;48.834;10.088;2023-05-20T09:52:09;96550.28;;;22.06;47.76
20971;BME280;10644;48.834;10.088;2023-05-20T09:54:36;96545.97;;;21.89;47.79
20971;BME280;10644;48.834;10.088;2023-05-20T09:57:02;96544.75;;;21.76;47.38
20971;BME280;10644;48.834;10.088;2023-05-20T09:59:30;96539.81;;;21.73;47.92
20971;BME280;10644;48.834;10.088;2023-05-20T10:01:59;96536.38;;;21.98;47.63
20971;BME280;10644;48.834;10.088;2023-05-20T10:04:25;96531.16;;;22.39;47.09
20971;BME280;10644;48.834;10.088;2023-05-20T10:12:23;96516.75;;;22.85;45.15
20971;BME280;10644;48.834;10.088;2023-05-20T10:20:29;96510.69;;;22.76;43.52
20971;BME280;10644;48.834;10.088;2023-05-20T10:22:57;96504.69;;;22.76;44.65
20971;BME280;10644;48.834;10.088;2023-05-20T10:25:24;96503.69;;;23.09;44.39
20971;BME280;10644;48.834;10.088;2023-05-20T10:27:50;96499.94;;;23.43;43.61
20971;BME280;10644;48.834;10.088;2023-05-20T10:30:20;96499.47;;;23.40;43.60
20971;BME280;10644;48.834;10.088;2023-05-20T10:32:56;96509.22;;;23.54;43.57
20971;BME280;10644;48.834;10.088;2023-05-20T10:35:25;96509.59;;;23.51;43.43
20971;BME280;10644;48.834;10.088;2023-05-20T10:37:52;96503.06;;;23.39;43.12
20971;BME280;10644;48.834;10.088;2023-05-20T10:40:19;96507.44;;;22.98;44.06
20971;BME280;10644;48.834;10.088;2023-05-20T10:42:47;96499.78;;;22.81;43.87
20971;BME280;10644;48.834;10.088;2023-05-20T10:45:26;96484.09;;;22.73;43.88
20971;BME280;10644;48.834;10.088;2023-05-20T10:47:57;96487.03;;;22.78;44.27
20971;BME280;10644;48.834;10.088;2023-05-20T10:50:27;96490.28;;;22.80;43.78
20971;BME280;10644;48.834;10.088;2023-05-20T10:53:02;96496.84;;;22.84;43.89
20971;BME280;10644;48.834;10.088;2023-05-20T10:55:35;96489.69;;;23.18;43.63
20971;BME280;10644;48.834;10.088;2023-05-20T10:58:01;96493.41;;;23.39;43.07
20971;BME280;10644;48.834;10.088;2023-05-20T11:00:27;96487.66;;;23.52;42.20
20971;BME280;10644;48.834;10.088;2023-05-20T11:02:55;96495.84;;;23.41;43.20
20971;BME280;10644;48.834;10.088;2023-05-20T11:05:21;96490.31;;;23.44;42.07
20971;BME280;10644;48.834;10.088;2023-05-20T11:07:48;96483.06;;;23.54;42.52
20971;BME280;10644;48.834;10.088;2023-05-20T11:10:14;96476.78;;;23.87;42.77
20971;BME280;10644;48.834;10.088;2023-05-20T11:12:39;96475.84;;;23.88;42.13
20971;BME280;10644;48.834;10.088;2023-05-20T11:15:10;96471.06;;;23.83;42.14
20971;BME280;10644;48.834;10.088;2023-05-20T11:17:50;96471.75;;;24.16;41.45
20971;BME280;10644;48.834;10.088;2023-05-20T11:20:16;96465.81;;;24.30;40.17
20971;BME280;10644;48.834;10.088;2023-05-20T11:22:43;96456.06;;;24.16;38.70
20971;BME280;10644;48.834;10.088;2023-05-20T11:25:09;96464.03;;;24.30;40.16
20971;BME280;10644;48.834;10.088;2023-05-20T11:27:40;96465.50;;;24.25;40.47
20971;BME280;10644;48.834;10.088;2023-05-20T11:30:06;96459.81;;;24.21;40.93
20971;BME280;10644;48.834;10.088;2023-05-20T11:32:34;96455.03;;;24.25;41.03
20971;BME280;10644;48.834;10.088;2023-05-20T11:34:59;96460.66;;;24.14;41.65
20971;BME280;10644;48.834;10.088;2023-05-20T11:37:25;96451.69;;;24.39;41.36
20971;BME280;10644;48.834;10.088;2023-05-20T11:40:04;96454.59;;;24.44;41.37
20971;BME280;10644;48.834;10.088;2023-05-20T11:42:35;96450.22;;;24.67;40.28
20971;BME280;10644;48.834;10.088;2023-05-20T11:45:01;96457.19;;;24.44;40.21
20971;BME280;10644;48.834;10.088;2023-05-20T11:47:26;96461.94;;;24.18;40.69
20971;BME280;10644;48.834;10.088;2023-05-20T11:49:55;96452.72;;;24.30;40.36
20971;BME280;10644;48.834;10.088;2023-05-20T11:52:20;96452.63;;;24.46;40.44
20971;BME280;10644;48.834;10.088;2023-05-20T11:54:52;96449.06;;;24.69;40.04
20971;BME280;10644;48.834;10.088;2023-05-20T11:57:18;96441.25;;;24.84;40.44
20971;BME280;10644;48.834;10.088;2023-05-20T11:59:44;96441.47;;;24.74;40.35
20971;BME280;10644;48.834;10.088;2023-05-20T12:02:09;96437.16;;;24.59;39.90
20971;BME280;10644;48.834;10.088;2023-05-20T12:04:34;96428.38;;;24.44;40.28
20971;BME280;10644;48.834;10.088;2023-05-20T12:07:00;96436.91;;;24.46;39.94
20971;BME280;10644;48.834;10.088;2023-05-20T12:09:25;96429.72;;;24.70;40.16
20971;BME280;10644;48.834;10.088;2023-05-20T12:11:51;96430.72;;;25.06;39.53
20971;BME280;10644;48.834;10.088;2023-05-20T12:14:16;96432.44;;;24.77;39.81
20971;BME280;10644;48.834;10.088;2023-05-20T12:16:41;96436.94;;;24.38;40.19
20971;BME280;10644;48.834;10.088;2023-05-20T12:19:07;96425.38;;;24.32;40.47
20971;BME280;10644;48.834;10.088;2023-05-20T12:21:33;96435.47;;;24.35;40.80
20971;BME280;10644;48.834;10.088;2023-05-20T12:23:59;96427.72;;;24.72;40.59
20971;BME280;10644;48.834;10.088;2023-05-20T12:26:28;96425.28;;;24.93;40.44
20971;BME280;10644;48.834;10.088;2023-05-20T12:28:54;96431.47;;;24.78;40.48
20971;BME280;10644;48.834;10.088;2023-05-20T12:31:20;96423.25;;;24.81;40.98
20971;BME280;10644;48.834;10.088;2023-05-20T12:33:45;96427.19;;;24.99;39.71
20971;BME280;10644;48.834;10.088;2023-05-20T12:36:13;96431.25;;;25.02;38.11
20971;BME280;10644;48.834;10.088;2023-05-20T12:38:41;96432.22;;;24.64;39.07
20971;BME280;10644;48.834;10.088;2023-05-20T12:41:07;96434.31;;;24.38;39.58
20971;BME280;10644;48.834;10.088;2023-05-20T12:43:34;96439.28;;;24.33;40.26
20971;BME280;10644;48.834;10.088;2023-05-20T12:45:59;96440.41;;;24.08;41.02
20971;BME280;10644;48.834;10.088;2023-05-20T12:48:25;96435.75;;;24.18;41.15
20971;BME280;10644;48.834;10.088;2023-05-20T12:50:50;96438.84;;;24.21;40.79
20971;BME280;10644;48.834;10.088;2023-05-20T12:53:15;96441.97;;;24.47;40.69
20971;BME280;10644;48.834;10.088;2023-05-20T12:55:41;96438.53;;;24.47;40.92
20971;BME280;10644;48.834;10.088;2023-05-20T12:58:08;96422.56;;;24.56;40.82